Time;durP1;ratioP1;P1;durP2;ratioP2;P2;SDS_P1;SDS_P2;PMS_P1;PMS_P2;Temp;Humidity;BMP_temperature;BMP_pressure;BME280_temperature;BME280_humidity;BME280_pressure;Samples;Min_cycle;Max_cycle;Signal;HPM_P1;HPM_P2
2023/03/31 00:02:16;;;;;;;;;;;;;;;;;;4453119;32;19940;-80
2023/03/31 00:04:45;;;;;;;;;;;;;;;;;;4452769;32;19932;-80
2023/03/31 00:07:10;;;;;;;;;;;;;;;;;;4438110;32;20357;-80
2023/03/31 00:09:35;;;;;;;;;;;;;;;;;;4438130;32;19964;-80
2023/03/31 00:12:00;;;;;;;;;;;;;;;;;;4452546;32;19945;-79
2023/03/31 00:14:26;;;;;;;;;;;;;;;;;;4438738;32;19995;-80
2023/03/31 00:16:51;;;;;;;;;;;;;;;;;;4445420;32;19977;-80
2023/03/31 00:19:20;;;;;;;;;;;;;;;;;;4447448;32;19995;-80
2023/03/31 00:21:45;;;;;;;;;;;;;;;;;;4454079;32;19944;-80
2023/03/31 00:24:10;;;;;;;;;;;;;;;;;;4439013;32;19936;-81
2023/03/31 00:26:35;;;;;;;;;;;;;;;;;;4453501;32;20024;-80
2023/03/31 00:29:00;;;;;;;;;;;;;;;;;;4438683;32;19988;-81
2023/03/31 00:31:29;;;;;;;;;;;;;;;;;;4438609;32;20335;-81
2023/03/31 00:33:54;;;;;;;;;;;;;;;;;;4439177;32;19988;-80
2023/03/31 00:36:29;;;;;;;;;;;;;;;;;;4438701;32;19932;-82
2023/03/31 00:38:55;;;;;;;;;;;;;;;;;;4439322;32;19932;-80
2023/03/31 00:41:20;;;;;;;;;;;;;;;;;;4438731;32;19936;-80
2023/03/31 00:43:45;;;;;;;;;;;;;;;;;;4452824;32;19984;-81
2023/03/31 00:46:14;;;;;;;;;;;;;;;;;;4438857;32;19940;-81
2023/03/31 00:48:39;;;;;;;;;;;;;;;;;;4438920;32;19942;-80
2023/03/31 00:51:05;;;;;;;;;;;;;;;;;;4439276;32;19936;-80
2023/03/31 00:53:30;;;;;;;;;;;;;;;;;;4455856;32;19940;-80
2023/03/31 00:55:55;;;;;;;;;;;;;;;;;;4443357;32;19940;-80
2023/03/31 00:58:20;;;;;;;;;;;;;;;;;;4442083;32;19937;-81
2023/03/31 01:00:46;;;;;;;;;;;;;;;;;;4455317;32;19932;-81
2023/03/31 01:03:11;;;;;;;;;;;;;;;;;;4441962;32;19929;-81
2023/03/31 01:05:36;;;;;;;;;;;;;;;;;;4453985;32;19925;-80
2023/03/31 01:08:02;;;;;;;;;;;;;;;;;;4468556;32;19981;-80
2023/03/31 01:10:27;;;;;;;;;;;;;;;;;;4456019;32;19921;-82
2023/03/31 01:12:52;;;;;;;;;;;;;;;;;;4455169;32;19933;-79
2023/03/31 01:15:17;;;;;;;;;;;;;;;;;;4455398;32;19948;-80
2023/03/31 01:17:46;;;;;;;;;;;;;;;;;;4468465;32;19931;-80
2023/03/31 01:20:11;;;;;;;;;;;;;;;;;;4454129;32;19958;-80
2023/03/31 01:22:36;;;;;;;;;;;;;;;;;;4453475;32;19960;-80
2023/03/31 01:25:02;;;;;;;;;;;;;;;;;;4467515;32;19949;-80
2023/03/31 01:27:27;;;;;;;;;;;;;;;;;;4455772;32;19932;-78
2023/03/31 01:29:52;;;;;;;;;;;;;;;;;;4469547;32;19951;-79
2023/03/31 01:32:17;;;;;;;;;;;;;;;;;;4453167;32;19937;-80
2023/03/31 01:34:42;;;;;;;;;;;;;;;;;;4449972;32;19969;-80
2023/03/31 01:37:08;;;;;;;;;;;;;;;;;;4448066;32;19936;-81
2023/03/31 01:39:33;;;;;;;;;;;;;;;;;;4446278;32;19972;-81
2023/03/31 01:41:58;;;;;;;;;;;;;;;;;;4446731;32;19936;-80
2023/03/31 01:44:23;;;;;;;;;;;;;;;;;;4442907;32;19985;-80
2023/03/31 01:46:48;;;;;;;;;;;;;;;;;;4443556;32;19940;-82
2023/03/31 01:49:13;;;;;;;;;;;;;;;;;;4458576;32;19996;-81
2023/03/31 01:51:39;;;;;;;;;;;;;;;;;;4442639;32;19947;-81
2023/03/31 01:54:05;;;;;;;;;;;;;;;;;;4456464;32;19940;-81
2023/03/31 01:56:30;;;;;;;;;;;;;;;;;;4440786;32;20278;-82
2023/03/31 01:58:55;;;;;;;;;;;;;;;;;;4440262;32;19936;-80
2023/03/31 02:01:20;;;;;;;;;;;;;;;;;;4439950;32;19932;-78
2023/03/31 02:03:45;;;;;;;;;;;;;;;;;;4454775;32;19936;-74
2023/03/31 02:06:10;;;;;;;;;;;;;;;;;;4440036;32;19951;-74
2023/03/31 02:08:36;;;;;;;;;;;;;;;;;;4453978;32;20447;-74
2023/03/31 02:11:01;;;;;;;;;;;;;;;;;;4441258;32;19940;-74
2023/03/31 02:13:26;;;;;;;;;;;;;;;;;;4439669;32;20005;-73
2023/03/31 02:15:51;;;;;;;;;;;;;;;;;;4441224;32;20305;-74
2023/03/31 02:18:17;;;;;;;;;;;;;;;;;;4439794;32;19979;-74
2023/03/31 02:20:42;;;;;;;;;;;;;;;;;;4454770;32;19936;-74
2023/03/31 02:23:07;;;;;;;;;;;;;;;;;;4440182;32;19988;-74
2023/03/31 02:25:32;;;;;;;;;;;;;;;;;;4426726;32;20278;-74
2023/03/31 02:27:57;;;;;;;;;;;;;;;;;;4424544;32;19941;-75
2023/03/31 02:30:23;;;;;;;;;;;;;;;;;;4422973;32;19941;-73
2023/03/31 02:32:48;;;;;;;;;;;;;;;;;;4423257;32;19976;-74
2023/03/31 02:35:13;;;;;;;;;;;;;;;;;;4425022;32;19970;-74
2023/03/31 02:37:38;;;;;;;;;;;;;;;;;;4422120;32;19948;-74
2023/03/31 02:40:03;;;;;;;;;;;;;;;;;;4427052;32;19945;-74
2023/03/31 02:42:29;;;;;;;;;;;;;;;;;;4424555;32;19941;-74
2023/03/31 02:44:54;;;;;;;;;;;;;;;;;;4444495;32;20281;-74
2023/03/31 02:47:19;;;;;;;;;;;;;;;;;;4452994;32;19936;-74
2023/03/31 02:49:44;;;;;;;;;;;;;;;;;;4453188;32;20339;-74
2023/03/31 02:52:09;;;;;;;;;;;;;;;;;;4439570;32;19937;-75
2023/03/31 02:54:34;;;;;;;;;;;;;;;;;;4452979;32;19933;-75
2023/03/31 02:56:59;;;;;;;;;;;;;;;;;;4454251;32;20329;-74
2023/03/31 02:59:25;;;;;;;;;;;;;;;;;;4439051;32;20332;-75
2023/03/31 03:01:50;;;;;;;;;;;;;;;;;;4453718;32;19932;-75
2023/03/31 03:04:15;;;;;;;;;;;;;;;;;;4453536;32;19992;-74
2023/03/31 03:06:41;;;;;;;;;;;;;;;;;;4453398;32;19948;-75
2023/03/31 03:09:06;;;;;;;;;;;;;;;;;;4452733;32;19988;-74
2023/03/31 03:11:31;;;;;;;;;;;;;;;;;;4440210;32;19937;-75
2023/03/31 03:13:56;;;;;;;;;;;;;;;;;;4453297;32;19976;-75
2023/03/31 03:16:23;;;;;;;;;;;;;;;;;;4439175;32;19936;-73
2023/03/31 03:18:48;;;;;;;;;;;;;;;;;;4439781;32;20227;-73
2023/03/31 03:21:13;;;;;;;;;;;;;;;;;;4453013;32;20256;-74
2023/03/31 03:23:38;;;;;;;;;;;;;;;;;;4455003;32;19932;-73
2023/03/31 03:26:03;;;;;;;;;;;;;;;;;;4453648;32;19947;-74
2023/03/31 03:28:28;;;;;;;;;;;;;;;;;;4440327;32;19936;-73
2023/03/31 03:30:54;;;;;;;;;;;;;;;;;;4453050;32;19947;-73
2023/03/31 03:33:23;;;;;;;;;;;;;;;;;;4453591;32;19940;-74
2023/03/31 03:35:48;;;;;;;;;;;;;;;;;;4452184;32;19940;-74
2023/03/31 03:38:14;;;;;;;;;;;;;;;;;;4454151;32;19970;-73
2023/03/31 03:40:39;;;;;;;;;;;;;;;;;;4438383;32;20311;-73
2023/03/31 03:43:04;;;;;;;;;;;;;;;;;;4454138;32;19951;-73
2023/03/31 03:45:29;;;;;;;;;;;;;;;;;;4439202;32;19936;-74
2023/03/31 03:47:54;;;;;;;;;;;;;;;;;;4453339;32;19947;-74
2023/03/31 03:50:20;;;;;;;;;;;;;;;;;;4452080;32;20222;-74
2023/03/31 03:52:45;;;;;;;;;;;;;;;;;;4438037;32;19941;-73
2023/03/31 03:55:11;;;;;;;;;;;;;;;;;;4452052;32;19987;-75
2023/03/31 03:57:36;;;;;;;;;;;;;;;;;;4438126;32;19975;-74
2023/03/31 04:00:01;;;;;;;;;;;;;;;;;;4453230;32;19934;-74
2023/03/31 04:02:27;;;;;;;;;;;;;;;;;;4454064;32;20353;-73
2023/03/31 04:04:52;;;;;;;;;;;;;;;;;;4454769;32;19937;-73
2023/03/31 04:07:17;;;;;;;;;;;;;;;;;;4452788;32;20003;-74
2023/03/31 04:09:42;;;;;;;;;;;;;;;;;;4437832;32;19936;-74
2023/03/31 04:12:07;;;;;;;;;;;;;;;;;;4452383;32;19933;-75
2023/03/31 04:14:33;;;;;;;;;;;;;;;;;;4452271;32;20291;-75
2023/03/31 04:16:58;;;;;;;;;;;;;;;;;;4438606;32;19976;-75
2023/03/31 04:19:26;;;;;;;;;;;;;;;;;;4451681;32;19932;-75
2023/03/31 04:21:57;;;;;;;;;;;;;;;;;;4437438;32;19947;-75
2023/03/31 04:24:29;;;;;;;;;;;;;;;;;;4439380;32;19973;-74
2023/03/31 04:26:55;;;;;;;;;;;;;;;;;;4453255;32;20003;-75
2023/03/31 04:29:21;;;;;;;;;;;;;;;;;;4437701;32;19932;-74
2023/03/31 04:31:46;;;;;;;;;;;;;;;;;;4438805;32;20398;-74
2023/03/31 04:34:14;;;;;;;;;;;;;;;;;;4439422;32;19936;-75
2023/03/31 04:36:41;;;;;;;;;;;;;;;;;;4439765;32;19932;-75
2023/03/31 04:39:09;;;;;;;;;;;;;;;;;;4453131;32;19967;-74
2023/03/31 04:41:34;;;;;;;;;;;;;;;;;;4437457;32;19970;-74
2023/03/31 04:43:59;;;;;;;;;;;;;;;;;;4439168;32;19941;-75
2023/03/31 04:46:26;;;;;;;;;;;;;;;;;;4453485;32;19936;-75
2023/03/31 04:48:51;;;;;;;;;;;;;;;;;;4451464;32;19969;-75
2023/03/31 04:51:16;;;;;;;;;;;;;;;;;;4451880;32;20279;-74
2023/03/31 04:53:42;;;;;;;;;;;;;;;;;;4437732;32;19947;-74
2023/03/31 04:56:07;;;;;;;;;;;;;;;;;;4451592;32;19949;-73
2023/03/31 04:58:32;;;;;;;;;;;;;;;;;;4438035;32;19937;-74
2023/03/31 05:00:57;;;;;;;;;;;;;;;;;;4452686;32;19937;-75
2023/03/31 05:03:22;;;;;;;;;;;;;;;;;;4437640;32;19955;-74
2023/03/31 05:05:47;;;;;;;;;;;;;;;;;;4453029;32;19932;-74
2023/03/31 05:08:12;;;;;;;;;;;;;;;;;;4451393;32;19988;-73
2023/03/31 05:10:37;;;;;;;;;;;;;;;;;;4437179;32;19937;-74
2023/03/31 05:13:02;;;;;;;;;;;;;;;;;;4453100;32;19979;-74
2023/03/31 05:15:27;;;;;;;;;;;;;;;;;;4452903;32;19949;-74
2023/03/31 05:17:52;;;;;;;;;;;;;;;;;;4451159;32;19993;-74
2023/03/31 05:20:18;;;;;;;;;;;;;;;;;;4453367;32;19936;-74
2023/03/31 05:22:43;;;;;;;;;;;;;;;;;;4438821;32;19952;-74
2023/03/31 05:25:10;;;;;;;;;;;;;;;;;;4453492;32;19947;-75
2023/03/31 05:27:35;;;;;;;;;;;;;;;;;;4452715;32;20325;-74
2023/03/31 05:30:00;;;;;;;;;;;;;;;;;;4438323;32;20298;-74
2023/03/31 05:32:26;;;;;;;;;;;;;;;;;;4451804;32;20348;-75
2023/03/31 05:34:51;;;;;;;;;;;;;;;;;;4437608;32;19962;-74
2023/03/31 05:37:16;;;;;;;;;;;;;;;;;;4452684;32;19983;-74
2023/03/31 05:39:41;;;;;;;;;;;;;;;;;;4437325;32;19936;-74
2023/03/31 05:42:07;;;;;;;;;;;;;;;;;;4452648;32;19932;-74
2023/03/31 05:44:32;;;;;;;;;;;;;;;;;;4437503;32;19928;-74
2023/03/31 05:46:57;;;;;;;;;;;;;;;;;;4451137;32;19959;-74
2023/03/31 05:49:22;;;;;;;;;;;;;;;;;;4451575;32;19940;-75
2023/03/31 05:51:47;;;;;;;;;;;;;;;;;;4451672;32;19996;-76
2023/03/31 05:54:12;;;;;;;;;;;;;;;;;;4452483;32;19941;-76
2023/03/31 05:56:38;;;;;;;;;;;;;;;;;;4451284;32;19952;-76
2023/03/31 05:59:03;;;;;;;;;;;;;;;;;;4436673;32;19989;-76
2023/03/31 06:01:28;;;;;;;;;;;;;;;;;;4434054;32;19947;-76
2023/03/31 06:03:53;;;;;;;;;;;;;;;;;;4420468;32;19949;-76
2023/03/31 06:06:20;;;;;;;;;;;;;;;;;;4419397;32;20387;-76
2023/03/31 06:08:45;;;;;;;;;;;;;;;;;;4436525;32;19936;-76
2023/03/31 06:11:10;;;;;;;;;;;;;;;;;;4438120;32;19937;-76
2023/03/31 06:13:35;;;;;;;;;;;;;;;;;;4454389;32;19936;-75
2023/03/31 06:16:00;;;;;;;;;;;;;;;;;;4454643;32;19960;-75
2023/03/31 06:18:27;;;;;;;;;;;;;;;;;;4453598;32;19971;-75
2023/03/31 06:20:52;;;;;;;;;;;;;;;;;;4436545;32;19943;-75
2023/03/31 06:23:17;;;;;;;;;;;;;;;;;;4430612;32;19937;-73
2023/03/31 06:25:42;;;;;;;;;;;;;;;;;;4430130;32;19982;-73
2023/03/31 06:28:07;;;;;;;;;;;;;;;;;;4423192;32;19945;-74
2023/03/31 06:30:32;;;;;;;;;;;;;;;;;;4422261;32;19984;-75
2023/03/31 06:32:57;;;;;;;;;;;;;;;;;;4423503;32;19984;-74
2023/03/31 06:35:23;;;;;;;;;;;;;;;;;;4422798;32;20023;-74
2023/03/31 06:37:48;;;;;;;;;;;;;;;;;;4422587;32;19941;-76
2023/03/31 06:40:13;;;;;;;;;;;;;;;;;;4428857;32;19941;-73
2023/03/31 06:42:38;;;;;;;;;;;;;;;;;;4425303;32;19960;-74
2023/03/31 06:45:03;;;;;;;;;;;;;;;;;;4422845;32;20329;-74
2023/03/31 06:47:28;;;;;;;;;;;;;;;;;;4423589;32;19956;-74
2023/03/31 06:49:53;;;;;;;;;;;;;;;;;;4438492;32;19951;-74
2023/03/31 06:52:18;;;;;;;;;;;;;;;;;;4442164;32;19933;-73
2023/03/31 06:54:44;;;;;;;;;;;;;;;;;;4426690;32;19936;-75
2023/03/31 06:57:09;;;;;;;;;;;;;;;;;;4438252;32;19953;-75
2023/03/31 06:59:34;;;;;;;;;;;;;;;;;;4438319;32;19933;-76
2023/03/31 07:01:59;;;;;;;;;;;;;;;;;;4437798;32;19941;-75
2023/03/31 07:04:24;;;;;;;;;;;;;;;;;;4423641;32;19958;-75
2023/03/31 07:06:50;;;;;;;;;;;;;;;;;;4437982;32;20242;-75
2023/03/31 07:09:15;;;;;;;;;;;;;;;;;;4424311;32;19933;-76
2023/03/31 07:11:40;;;;;;;;;;;;;;;;;;4423467;32;20366;-75
2023/03/31 07:14:05;;;;;;;;;;;;;;;;;;4438143;32;19982;-76
2023/03/31 07:16:30;;;;;;;;;;;;;;;;;;4437495;32;20004;-76
2023/03/31 07:18:58;;;;;;;;;;;;;;;;;;4437669;32;20000;-74
2023/03/31 07:21:23;;;;;;;;;;;;;;;;;;4437887;32;19936;-76
2023/03/31 07:23:48;;;;;;;;;;;;;;;;;;4437922;32;19970;-77
2023/03/31 07:26:13;;;;;;;;;;;;;;;;;;4437255;32;20049;-77
2023/03/31 07:28:39;;;;;;;;;;;;;;;;;;4423060;32;20361;-76
2023/03/31 07:31:04;;;;;;;;;;;;;;;;;;4423281;32;19943;-77
2023/03/31 07:33:29;;;;;;;;;;;;;;;;;;4422925;32;19981;-75
2023/03/31 07:35:54;;;;;;;;;;;;;;;;;;4423085;32;20295;-76
2023/03/31 07:38:20;;;;;;;;;;;;;;;;;;4423550;32;19937;-75
2023/03/31 07:40:45;;;;;;;;;;;;;;;;;;4428420;32;19937;-75
2023/03/31 07:43:11;;;;;;;;;;;;;;;;;;4440865;32;19948;-75
2023/03/31 07:45:36;;;;;;;;;;;;;;;;;;4440343;32;19989;-75
2023/03/31 07:48:01;;;;;;;;;;;;;;;;;;4423377;32;20313;-75
2023/03/31 07:50:26;;;;;;;;;;;;;;;;;;4423968;32;19992;-75
2023/03/31 07:52:52;;;;;;;;;;;;;;;;;;4437762;32;19932;-76
2023/03/31 07:55:18;;;;;;;;;;;;;;;;;;4424975;32;19948;-75
2023/03/31 07:57:45;;;;;;;;;;;;;;;;;;4423346;32;19959;-76
2023/03/31 08:00:11;;;;;;;;;;;;;;;;;;4422846;32;20321;-76
2023/03/31 08:02:36;;;;;;;;;;;;;;;;;;4437399;32;19956;-76
2023/03/31 08:05:01;;;;;;;;;;;;;;;;;;4438896;32;19937;-77
2023/03/31 08:07:29;;;;;;;;;;;;;;;;;;4423198;32;20298;-78
2023/03/31 08:09:54;;;;;;;;;;;;;;;;;;4436737;32;19971;-75
2023/03/31 08:12:20;;;;;;;;;;;;;;;;;;4423017;32;19982;-76
2023/03/31 08:14:45;;;;;;;;;;;;;;;;;;4437897;32;20000;-77
2023/03/31 08:17:10;;;;;;;;;;;;;;;;;;4427487;32;19941;-76
2023/03/31 08:19:35;;;;;;;;;;;;;;;;;;4438334;32;19945;-75
2023/03/31 08:22:00;;;;;;;;;;;;;;;;;;4437038;32;19946;-75
2023/03/31 08:24:25;;;;;;;;;;;;;;;;;;4423909;32;20313;-76
2023/03/31 08:26:50;;;;;;;;;;;;;;;;;;4436276;32;19936;-76
2023/03/31 08:29:15;;;;;;;;;;;;;;;;;;4436457;32;19943;-76
2023/03/31 08:31:40;;;;;;;;;;;;;;;;;;4422338;32;19936;-76
2023/03/31 08:34:06;;;;;;;;;;;;;;;;;;4436581;32;19933;-76
2023/03/31 08:36:31;;;;;;;;;;;;;;;;;;4437103;32;19940;-76
2023/03/31 08:38:57;;;;;;;;;;;;;;;;;;4436035;32;19964;-77
2023/03/31 08:41:22;;;;;;;;;;;;;;;;;;4422359;32;20318;-76
2023/03/31 08:43:47;;;;;;;;;;;;;;;;;;4436218;32;19964;-77
2023/03/31 08:46:12;;;;;;;;;;;;;;;;;;4437755;32;19937;-77
2023/03/31 08:48:43;;;;;;;;;;;;;;;;;;4426326;32;20377;-76
2023/03/31 08:51:09;;;;;;;;;;;;;;;;;;4426468;32;19930;-77
2023/03/31 08:53:34;;;;;;;;;;;;;;;;;;4420664;32;19959;-77
2023/03/31 08:56:00;;;;;;;;;;;;;;;;;;4419873;32;19944;-78
2023/03/31 08:58:25;;;;;;;;;;;;;;;;;;4421898;32;19967;-79
2023/03/31 09:00:50;;;;;;;;;;;;;;;;;;4423141;32;19937;-78
2023/03/31 09:03:15;;;;;;;;;;;;;;;;;;4421693;32;20296;-78
2023/03/31 09:05:41;;;;;;;;;;;;;;;;;;4420040;32;20306;-80
2023/03/31 09:08:06;;;;;;;;;;;;;;;;;;4420110;32;19976;-81
2023/03/31 09:10:31;;;;;;;;;;;;;;;;;;4420250;32;19934;-80
2023/03/31 09:12:56;;;;;;;;;;;;;;;;;;4420325;32;19942;-81
2023/03/31 09:15:22;;;;;;;;;;;;;;;;;;4421202;32;20266;-81
2023/03/31 09:17:47;;;;;;;;;;;;;;;;;;4420333;32;19974;-80
2023/03/31 09:20:12;;;;;;;;;;;;;;;;;;4421743;32;20230;-79
2023/03/31 09:22:37;;;;;;;;;;;;;;;;;;4419612;32;19940;-78
2023/03/31 09:25:02;;;;;;;;;;;;;;;;;;4420661;32;20329;-79
2023/03/31 09:27:30;;;;;;;;;;;;;;;;;;4420805;32;20262;-79
2023/03/31 09:29:55;;;;;;;;;;;;;;;;;;4421590;32;19941;-79
2023/03/31 09:32:20;;;;;;;;;;;;;;;;;;4420258;32;19952;-78
2023/03/31 09:34:45;;;;;;;;;;;;;;;;;;4421292;32;19952;-79
2023/03/31 09:37:10;;;;;;;;;;;;;;;;;;4421167;32;19951;-80
2023/03/31 09:39:35;;;;;;;;;;;;;;;;;;4421768;32;19941;-79
2023/03/31 09:42:00;;;;;;;;;;;;;;;;;;4422775;32;20001;-79
2023/03/31 09:44:26;;;;;;;;;;;;;;;;;;4419874;32;19936;-80
2023/03/31 09:46:51;;;;;;;;;;;;;;;;;;4423768;32;19996;-80
2023/03/31 09:49:16;;;;;;;;;;;;;;;;;;4423604;32;20304;-78
2023/03/31 09:51:41;;;;;;;;;;;;;;;;;;4422398;32;19945;-79
2023/03/31 09:54:06;;;;;;;;;;;;;;;;;;4431784;32;19977;-80
2023/03/31 09:56:31;;;;;;;;;;;;;;;;;;4425728;32;20306;-79
2023/03/31 09:58:56;;;;;;;;;;;;;;;;;;4410724;32;19969;-78
2023/03/31 10:01:21;;;;;;;;;;;;;;;;;;4423802;32;20362;-80
2023/03/31 10:03:47;;;;;;;;;;;;;;;;;;4423316;32;20364;-79
2023/03/31 10:06:12;;;;;;;;;;;;;;;;;;4410084;32;19960;-79
2023/03/31 10:08:37;;;;;;;;;;;;;;;;;;4410164;32;19977;-79
2023/03/31 10:11:02;;;;;;;;;;;;;;;;;;4412847;32;19933;-79
2023/03/31 10:13:28;;;;;;;;;;;;;;;;;;4425479;32;19998;-79
2023/03/31 10:15:53;;;;;;;;;;;;;;;;;;4454584;32;20301;-79
2023/03/31 10:18:18;;;;;;;;;;;;;;;;;;4441336;32;20333;-79
2023/03/31 10:20:43;;;;;;;;;;;;;;;;;;4442953;32;19937;-79
2023/03/31 10:23:08;;;;;;;;;;;;;;;;;;4445044;32;19966;-79
2023/03/31 10:25:33;;;;;;;;;;;;;;;;;;4461815;32;20056;-78
2023/03/31 10:27:58;;;;;;;;;;;;;;;;;;4461655;32;19943;-80
2023/03/31 10:30:24;;;;;;;;;;;;;;;;;;4463199;32;20005;-80
2023/03/31 10:32:49;;;;;;;;;;;;;;;;;;4462148;32;19936;-80
2023/03/31 10:35:14;;;;;;;;;;;;;;;;;;4442825;32;19936;-79
2023/03/31 10:37:39;;;;;;;;;;;;;;;;;;4455023;32;19933;-80
2023/03/31 10:40:08;;;;;;;;;;;;;;;;;;4453936;32;19937;-80
2023/03/31 10:42:33;;;;;;;;;;;;;;;;;;4454375;32;19936;-80
2023/03/31 10:44:58;;;;;;;;;;;;;;;;;;4455172;32;19951;-81
2023/03/31 10:47:23;;;;;;;;;;;;;;;;;;4453896;32;19977;-80
2023/03/31 10:49:48;;;;;;;;;;;;;;;;;;4440342;32;19984;-78
2023/03/31 10:52:13;;;;;;;;;;;;;;;;;;4440443;32;19955;-78
2023/03/31 10:54:39;;;;;;;;;;;;;;;;;;4457691;32;19974;-78
2023/03/31 10:57:05;;;;;;;;;;;;;;;;;;4461533;32;19954;-78
2023/03/31 10:59:30;;;;;;;;;;;;;;;;;;4457536;32;19984;-77
2023/03/31 11:01:55;;;;;;;;;;;;;;;;;;4454474;32;19936;-77
2023/03/31 11:04:20;;;;;;;;;;;;;;;;;;4455558;32;19940;-79
2023/03/31 11:06:45;;;;;;;;;;;;;;;;;;4442128;32;19965;-79
2023/03/31 11:09:10;;;;;;;;;;;;;;;;;;4439135;32;19956;-79
2023/03/31 11:11:35;;;;;;;;;;;;;;;;;;4453760;32;19944;-79
2023/03/31 11:14:00;;;;;;;;;;;;;;;;;;4453649;32;19940;-79
2023/03/31 11:16:25;;;;;;;;;;;;;;;;;;4453090;32;19984;-78
2023/03/31 11:18:50;;;;;;;;;;;;;;;;;;4453271;32;19969;-76
2023/03/31 11:21:16;;;;;;;;;;;;;;;;;;4438889;32;19973;-77
2023/03/31 11:23:41;;;;;;;;;;;;;;;;;;4453719;32;20031;-77
2023/03/31 11:26:07;;;;;;;;;;;;;;;;;;4430069;32;19969;-77
2023/03/31 11:28:32;;;;;;;;;;;;;;;;;;4422171;32;20200;-78
2023/03/31 11:30:57;;;;;;;;;;;;;;;;;;4412959;32;20285;-77
2023/03/31 11:33:22;;;;;;;;;;;;;;;;;;4419248;32;19941;-78
2023/03/31 11:35:49;;;;;;;;;;;;;;;;;;4422297;32;19934;-77
2023/03/31 11:38:16;;;;;;;;;;;;;;;;;;4422308;32;19948;-78
2023/03/31 11:40:41;;;;;;;;;;;;;;;;;;4421972;32;19928;-78
2023/03/31 11:43:06;;;;;;;;;;;;;;;;;;4419882;32;19967;-78
2023/03/31 11:45:31;;;;;;;;;;;;;;;;;;4424308;32;19937;-78
2023/03/31 11:47:56;;;;;;;;;;;;;;;;;;4431539;32;20437;-78
2023/03/31 11:50:21;;;;;;;;;;;;;;;;;;4425246;32;19941;-78
2023/03/31 11:52:46;;;;;;;;;;;;;;;;;;4418529;32;20378;-77
2023/03/31 11:55:14;;;;;;;;;;;;;;;;;;4432214;32;19997;-78
2023/03/31 11:57:39;;;;;;;;;;;;;;;;;;4432544;32;19959;-77
2023/03/31 12:00:06;;;;;;;;;;;;;;;;;;4431723;32;19949;-77
2023/03/31 12:02:31;;;;;;;;;;;;;;;;;;4423094;32;19981;-78
2023/03/31 12:04:56;;;;;;;;;;;;;;;;;;4428457;32;19982;-78
2023/03/31 12:07:21;;;;;;;;;;;;;;;;;;4417040;32;20285;-77
2023/03/31 12:09:46;;;;;;;;;;;;;;;;;;4422005;32;20008;-77
2023/03/31 12:12:11;;;;;;;;;;;;;;;;;;4417128;32;19953;-77
2023/03/31 12:14:36;;;;;;;;;;;;;;;;;;4429478;32;20391;-77
2023/03/31 12:17:01;;;;;;;;;;;;;;;;;;4436859;32;19933;-77
2023/03/31 12:19:27;;;;;;;;;;;;;;;;;;4428090;32;19973;-77
2023/03/31 12:21:52;;;;;;;;;;;;;;;;;;4421531;32;19947;-77
2023/03/31 12:24:17;;;;;;;;;;;;;;;;;;4422366;32;20003;-78
2023/03/31 12:26:42;;;;;;;;;;;;;;;;;;4429089;32;19940;-79
2023/03/31 12:29:07;;;;;;;;;;;;;;;;;;4426886;32;19960;-78
2023/03/31 12:31:32;;;;;;;;;;;;;;;;;;4435582;32;19940;-78
2023/03/31 12:33:57;;;;;;;;;;;;;;;;;;4426278;32;19972;-79
2023/03/31 12:36:22;;;;;;;;;;;;;;;;;;4438508;32;20374;-79
2023/03/31 12:38:48;;;;;;;;;;;;;;;;;;4434193;32;19951;-78
2023/03/31 12:41:13;;;;;;;;;;;;;;;;;;4411795;32;20279;-78
2023/03/31 12:43:39;;;;;;;;;;;;;;;;;;4407120;32;19963;-78
2023/03/31 12:46:04;;;;;;;;;;;;;;;;;;4407770;32;19943;-78
2023/03/31 12:48:29;;;;;;;;;;;;;;;;;;4411240;32;20371;-78
2023/03/31 12:50:54;;;;;;;;;;;;;;;;;;4424333;32;20025;-77
2023/03/31 12:53:19;;;;;;;;;;;;;;;;;;4418550;32;19979;-78
2023/03/31 12:55:45;;;;;;;;;;;;;;;;;;4428825;32;19941;-78
2023/03/31 12:58:10;;;;;;;;;;;;;;;;;;4423904;32;19932;-79
2023/03/31 13:00:35;;;;;;;;;;;;;;;;;;4430043;32;19956;-82
2023/03/31 13:03:00;;;;;;;;;;;;;;;;;;4436848;32;19941;-79
2023/03/31 13:05:25;;;;;;;;;;;;;;;;;;4420883;32;19951;-80
2023/03/31 13:07:50;;;;;;;;;;;;;;;;;;4414439;32;20249;-81
2023/03/31 13:10:16;;;;;;;;;;;;;;;;;;4425612;32;19949;-80
2023/03/31 13:12:41;;;;;;;;;;;;;;;;;;4430956;32;19968;-81
2023/03/31 13:15:06;;;;;;;;;;;;;;;;;;4444138;32;19937;-81
2023/03/31 13:17:31;;;;;;;;;;;;;;;;;;4433032;32;19939;-81
2023/03/31 13:19:56;;;;;;;;;;;;;;;;;;4438320;32;19965;-81
2023/03/31 13:22:21;;;;;;;;;;;;;;;;;;4428963;32;19941;-80
2023/03/31 13:24:46;;;;;;;;;;;;;;;;;;4426859;32;20001;-79
2023/03/31 13:27:11;;;;;;;;;;;;;;;;;;4426169;32;19969;-80
2023/03/31 13:29:36;;;;;;;;;;;;;;;;;;4438619;32;19973;-79
2023/03/31 13:32:02;;;;;;;;;;;;;;;;;;4423966;32;19984;-79
2023/03/31 13:34:27;;;;;;;;;;;;;;;;;;4420680;32;19932;-81
2023/03/31 13:36:53;;;;;;;;;;;;;;;;;;4440066;32;19947;-80
2023/03/31 13:39:18;;;;;;;;;;;;;;;;;;4424004;32;19993;-79
2023/03/31 13:41:45;;;;;;;;;;;;;;;;;;4437284;32;19948;-78
2023/03/31 13:44:10;;;;;;;;;;;;;;;;;;4439496;32;19940;-77
2023/03/31 13:46:35;;;;;;;;;;;;;;;;;;4433568;32;19956;-77
2023/03/31 13:49:00;;;;;;;;;;;;;;;;;;4430942;32;19941;-76
2023/03/31 13:51:25;;;;;;;;;;;;;;;;;;4437064;32;19952;-76
2023/03/31 13:53:53;;;;;;;;;;;;;;;;;;4433492;32;20004;-76
2023/03/31 13:56:18;;;;;;;;;;;;;;;;;;4419116;32;20392;-75
2023/03/31 13:58:43;;;;;;;;;;;;;;;;;;4432580;32;19964;-75
2023/03/31 14:01:08;;;;;;;;;;;;;;;;;;4431657;32;19959;-73
2023/03/31 14:03:33;;;;;;;;;;;;;;;;;;4428536;32;19941;-75
2023/03/31 14:05:58;;;;;;;;;;;;;;;;;;4430761;32;19967;-75
2023/03/31 14:08:23;;;;;;;;;;;;;;;;;;4434992;32;19954;-74
2023/03/31 14:10:49;;;;;;;;;;;;;;;;;;4437972;32;20223;-75
2023/03/31 14:13:14;;;;;;;;;;;;;;;;;;4430930;32;19940;-75
2023/03/31 14:15:39;;;;;;;;;;;;;;;;;;4424925;32;19944;-75
2023/03/31 14:18:05;;;;;;;;;;;;;;;;;;4428740;32;19992;-76
2023/03/31 14:20:30;;;;;;;;;;;;;;;;;;4433931;32;19944;-75
2023/03/31 14:22:55;;;;;;;;;;;;;;;;;;4424467;32;19974;-78
2023/03/31 14:25:21;;;;;;;;;;;;;;;;;;4421087;32;19983;-77
2023/03/31 14:27:46;;;;;;;;;;;;;;;;;;4424225;32;20276;-79
2023/03/31 14:30:11;;;;;;;;;;;;;;;;;;4412112;32;19975;-80
2023/03/31 14:32:37;;;;;;;;;;;;;;;;;;4411158;32;20397;-78
2023/03/31 14:35:02;;;;;;;;;;;;;;;;;;4423567;32;19948;-79
2023/03/31 14:37:28;;;;;;;;;;;;;;;;;;4429303;32;20440;-77
2023/03/31 14:39:55;;;;;;;;;;;;;;;;;;4428757;32;19945;-75
2023/03/31 14:42:20;;;;;;;;;;;;;;;;;;4428144;32;19949;-75
2023/03/31 14:44:46;;;;;;;;;;;;;;;;;;4425750;32;20010;-75
2023/03/31 14:47:11;;;;;;;;;;;;;;;;;;4425716;32;19949;-77
2023/03/31 14:49:37;;;;;;;;;;;;;;;;;;4433995;32;19976;-75
2023/03/31 14:52:02;;;;;;;;;;;;;;;;;;4422977;32;19972;-74
2023/03/31 14:54:27;;;;;;;;;;;;;;;;;;4433108;32;19936;-77
2023/03/31 14:56:52;;;;;;;;;;;;;;;;;;4420818;32;19945;-75
2023/03/31 14:59:17;;;;;;;;;;;;;;;;;;4414556;32;20328;-77
2023/03/31 15:01:42;;;;;;;;;;;;;;;;;;4431137;32;19988;-77
2023/03/31 15:04:09;;;;;;;;;;;;;;;;;;4424328;32;19987;-76
2023/03/31 15:06:34;;;;;;;;;;;;;;;;;;4423727;32;19953;-76
2023/03/31 15:08:59;;;;;;;;;;;;;;;;;;4425980;32;19948;-77
2023/03/31 15:11:26;;;;;;;;;;;;;;;;;;4426135;32;19955;-75
2023/03/31 15:13:52;;;;;;;;;;;;;;;;;;4427954;32;19974;-75
2023/03/31 15:16:17;;;;;;;;;;;;;;;;;;4436588;32;19949;-76
2023/03/31 15:18:43;;;;;;;;;;;;;;;;;;4432230;32;19953;-77
2023/03/31 15:21:08;;;;;;;;;;;;;;;;;;4426987;32;19992;-76
2023/03/31 15:23:34;;;;;;;;;;;;;;;;;;4416026;32;19981;-76
2023/03/31 15:25:59;;;;;;;;;;;;;;;;;;4430603;32;20373;-76
2023/03/31 15:28:24;;;;;;;;;;;;;;;;;;4422370;32;20309;-76
2023/03/31 15:30:49;;;;;;;;;;;;;;;;;;4420445;32;19937;-77
2023/03/31 15:33:15;;;;;;;;;;;;;;;;;;4419922;32;19970;-77
2023/03/31 15:35:40;;;;;;;;;;;;;;;;;;4427578;32;19944;-77
2023/03/31 15:38:05;;;;;;;;;;;;;;;;;;4430725;32;19941;-78
2023/03/31 15:40:30;;;;;;;;;;;;;;;;;;4426543;32;19984;-78
2023/03/31 15:42:55;;;;;;;;;;;;;;;;;;4422350;32;19940;-79
2023/03/31 15:45:20;;;;;;;;;;;;;;;;;;4436856;32;19977;-79
2023/03/31 15:47:45;;;;;;;;;;;;;;;;;;4410048;32;20227;-80
2023/03/31 15:50:12;;;;;;;;;;;;;;;;;;4423067;32;20288;-81
2023/03/31 15:52:37;;;;;;;;;;;;;;;;;;4422756;32;19968;-80
2023/03/31 15:55:02;;;;;;;;;;;;;;;;;;4422902;32;19941;-80
2023/03/31 15:57:27;;;;;;;;;;;;;;;;;;4432159;32;19953;-79
2023/03/31 15:59:54;;;;;;;;;;;;;;;;;;4417279;32;20018;-79
2023/03/31 16:02:20;;;;;;;;;;;;;;;;;;4435529;32;19997;-80
2023/03/31 16:04:45;;;;;;;;;;;;;;;;;;4438967;32;20049;-78
2023/03/31 16:07:10;;;;;;;;;;;;;;;;;;4439895;32;19937;-79
2023/03/31 16:09:35;;;;;;;;;;;;;;;;;;4437953;32;19993;-79
2023/03/31 16:12:00;;;;;;;;;;;;;;;;;;4436433;32;19941;-79
2023/03/31 16:14:26;;;;;;;;;;;;;;;;;;4422724;32;20238;-79
2023/03/31 16:16:51;;;;;;;;;;;;;;;;;;4422927;32;19933;-79
2023/03/31 16:19:16;;;;;;;;;;;;;;;;;;4411564;32;19996;-79
2023/03/31 16:21:41;;;;;;;;;;;;;;;;;;4443316;32;20273;-79
2023/03/31 16:24:06;;;;;;;;;;;;;;;;;;4452820;32;19999;-79
2023/03/31 16:26:31;;;;;;;;;;;;;;;;;;4437732;32;20261;-79
2023/03/31 16:28:57;;;;;;;;;;;;;;;;;;4425772;32;19984;-79
2023/03/31 16:31:22;;;;;;;;;;;;;;;;;;4423230;32;19932;-78
2023/03/31 16:33:47;;;;;;;;;;;;;;;;;;4453065;32;19982;-78